sensor_id;sensor_type;location;lat;lon;timestamp;temperature;humidity
62904;DHT22;49000;50.698;13.322;2023-08-24T00:01:03;14.70;1.00
62904;DHT22;49000;50.698;13.322;2023-08-24T00:03:28;14.60;1.00
62904;DHT22;49000;50.698;13.322;2023-08-24T00:05:54;14.60;1.00
62904;DHT22;49000;50.698;13.322;2023-08-24T00:08:20;14.60;1.00
62904;DHT22;49000;50.698;13.322;2023-08-24T00:10:45;14.60;1.00
62904;DHT22;49000;50.698;13.322;2023-08-24T00:13:14;14.50;1.00
62904;DHT22;49000;50.698;13.322;2023-08-24T00:15:39;14.50;1.00
62904;DHT22;49000;50.698;13.322;2023-08-24T00:18:06;14.40;1.00
62904;DHT22;49000;50.698;13.322;2023-08-24T00:20:32;14.40;1.00
62904;DHT22;49000;50.698;13.322;2023-08-24T00:22:58;14.40;1.00
62904;DHT22;49000;50.698;13.322;2023-08-24T00:25:24;14.40;1.00
62904;DHT22;49000;50.698;13.322;2023-08-24T00:27:54;14.40;1.00
62904;DHT22;49000;50.698;13.322;2023-08-24T00:30:20;14.40;1.00
62904;DHT22;49000;50.698;13.322;2023-08-24T00:32:45;14.30;1.00
62904;DHT22;49000;50.698;13.322;2023-08-24T00:35:11;14.30;1.00
62904;DHT22;49000;50.698;13.322;2023-08-24T00:37:37;14.20;1.00
62904;DHT22;49000;50.698;13.322;2023-08-24T00:40:04;14.20;1.00
62904;DHT22;49000;50.698;13.322;2023-08-24T00:42:42;14.20;1.00
62904;DHT22;49000;50.698;13.322;2023-08-24T00:45:10;14.10;1.00
62904;DHT22;49000;50.698;13.322;2023-08-24T00:47:40;14.10;1.00
62904;DHT22;49000;50.698;13.322;2023-08-24T00:50:07;14.10;1.00
62904;DHT22;49000;50.698;13.322;2023-08-24T00:52:33;14.10;1.00
62904;DHT22;49000;50.698;13.322;2023-08-24T00:54:59;14.00;1.00
62904;DHT22;49000;50.698;13.322;2023-08-24T00:57:27;14.00;1.00
62904;DHT22;49000;50.698;13.322;2023-08-24T00:59:53;14.00;1.00
62904;DHT22;49000;50.698;13.322;2023-08-24T01:02:19;13.90;1.00
62904;DHT22;49000;50.698;13.322;2023-08-24T01:04:46;13.90;1.00
62904;DHT22;49000;50.698;13.322;2023-08-24T01:07:13;13.90;1.00
62904;DHT22;49000;50.698;13.322;2023-08-24T01:09:39;13.90;1.00
62904;DHT22;49000;50.698;13.322;2023-08-24T01:17:26;13.80;1.00
62904;DHT22;49000;50.698;13.322;2023-08-24T01:19:55;13.80;1.00
62904;DHT22;49000;50.698;13.322;2023-08-24T01:22:33;13.70;1.00
62904;DHT22;49000;50.698;13.322;2023-08-24T01:25:24;13.70;1.00
62904;DHT22;49000;50.698;13.322;2023-08-24T01:27:54;13.70;1.00
62904;DHT22;49000;50.698;13.322;2023-08-24T01:30:20;13.60;1.00
62904;DHT22;49000;50.698;13.322;2023-08-24T01:32:46;13.60;1.00
62904;DHT22;49000;50.698;13.322;2023-08-24T01:35:11;13.50;1.00
62904;DHT22;49000;50.698;13.322;2023-08-24T01:37:37;13.50;3.70
62904;DHT22;49000;50.698;13.322;2023-08-24T01:40:04;13.40;13.00
62904;DHT22;49000;50.698;13.322;2023-08-24T01:42:55;13.40;17.90
62904;DHT22;49000;50.698;13.322;2023-08-24T01:45:27;13.40;23.20
62904;DHT22;49000;50.698;13.322;2023-08-24T01:47:55;13.40;17.90
62904;DHT22;49000;50.698;13.322;2023-08-24T01:50:21;13.40;16.90
62904;DHT22;49000;50.698;13.322;2023-08-24T01:52:48;13.30;16.80
62904;DHT22;49000;50.698;13.322;2023-08-24T01:55:13;13.30;16.10
62904;DHT22;49000;50.698;13.322;2023-08-24T01:57:40;13.30;16.50
62904;DHT22;49000;50.698;13.322;2023-08-24T02:00:06;13.30;15.30
62904;DHT22;49000;50.698;13.322;2023-08-24T02:02:35;13.30;16.20
62904;DHT22;49000;50.698;13.322;2023-08-24T02:05:01;13.30;19.90
62904;DHT22;49000;50.698;13.322;2023-08-24T02:07:27;13.20;19.00
62904;DHT22;49000;50.698;13.322;2023-08-24T02:09:52;13.20;19.40
62904;DHT22;49000;50.698;13.322;2023-08-24T02:12:18;13.20;18.90
62904;DHT22;49000;50.698;13.322;2023-08-24T02:14:43;13.10;19.40
62904;DHT22;49000;50.698;13.322;2023-08-24T02:17:09;13.10;22.30
62904;DHT22;49000;50.698;13.322;2023-08-24T02:19:34;13.10;23.00
62904;DHT22;49000;50.698;13.322;2023-08-24T02:22:00;13.00;40.50
62904;DHT22;49000;50.698;13.322;2023-08-24T02:24:25;13.00;55.90
62904;DHT22;49000;50.698;13.322;2023-08-24T02:26:51;12.90;68.00
62904;DHT22;49000;50.698;13.322;2023-08-24T02:29:17;13.00;65.60
62904;DHT22;49000;50.698;13.322;2023-08-24T02:31:43;13.00;63.30
62904;DHT22;49000;50.698;13.322;2023-08-24T02:34:09;13.00;64.50
62904;DHT22;49000;50.698;13.322;2023-08-24T02:36:34;13.00;62.60
62904;DHT22;49000;50.698;13.322;2023-08-24T02:39:00;13.00;62.70
62904;DHT22;49000;50.698;13.322;2023-08-24T02:41:26;13.00;59.00
62904;DHT22;49000;50.698;13.322;2023-08-24T02:43:51;13.00;60.30
62904;DHT22;49000;50.698;13.322;2023-08-24T02:46:17;12.90;60.00
62904;DHT22;49000;50.698;13.322;2023-08-24T02:48:44;12.90;63.00
62904;DHT22;49000;50.698;13.322;2023-08-24T02:51:10;12.90;66.10
62904;DHT22;49000;50.698;13.322;2023-08-24T02:53:36;12.80;61.30
62904;DHT22;49000;50.698;13.322;2023-08-24T02:56:02;12.80;66.10
62904;DHT22;49000;50.698;13.322;2023-08-24T02:58:29;12.80;66.40
62904;DHT22;49000;50.698;13.322;2023-08-24T03:00:55;12.80;66.10
62904;DHT22;49000;50.698;13.322;2023-08-24T03:03:20;12.80;64.10
62904;DHT22;49000;50.698;13.322;2023-08-24T03:06:00;12.80;63.00
62904;DHT22;49000;50.698;13.322;2023-08-24T03:08:26;12.80;62.00
62904;DHT22;49000;50.698;13.322;2023-08-24T03:10:52;12.80;60.50
62904;DHT22;49000;50.698;13.322;2023-08-24T03:13:17;12.70;58.10
62904;DHT22;49000;50.698;13.322;2023-08-24T03:15:43;12.80;53.60
62904;DHT22;49000;50.698;13.322;2023-08-24T03:18:11;12.70;47.60
62904;DHT22;49000;50.698;13.322;2023-08-24T03:20:38;12.70;44.80
62904;DHT22;49000;50.698;13.322;2023-08-24T03:23:04;12.70;43.10
62904;DHT22;49000;50.698;13.322;2023-08-24T03:25:31;12.70;43.10
62904;DHT22;49000;50.698;13.322;2023-08-24T03:27:56;12.60;45.60
62904;DHT22;49000;50.698;13.322;2023-08-24T03:30:22;12.60;47.30
62904;DHT22;49000;50.698;13.322;2023-08-24T03:32:48;12.60;47.20
62904;DHT22;49000;50.698;13.322;2023-08-24T03:35:13;12.60;47.90
62904;DHT22;49000;50.698;13.322;2023-08-24T03:37:40;12.60;47.30
62904;DHT22;49000;50.698;13.322;2023-08-24T03:40:06;12.50;44.00
62904;DHT22;49000;50.698;13.322;2023-08-24T03:42:32;12.50;42.00
62904;DHT22;49000;50.698;13.322;2023-08-24T03:44:59;12.50;41.20
62904;DHT22;49000;50.698;13.322;2023-08-24T03:47:25;12.50;40.80
62904;DHT22;49000;50.698;13.322;2023-08-24T03:49:50;12.50;41.30
62904;DHT22;49000;50.698;13.322;2023-08-24T03:52:16;12.50;41.40
62904;DHT22;49000;50.698;13.322;2023-08-24T03:54:41;12.40;41.60
62904;DHT22;49000;50.698;13.322;2023-08-24T03:57:07;12.50;40.90
62904;DHT22;49000;50.698;13.322;2023-08-24T03:59:33;12.40;40.30
62904;DHT22;49000;50.698;13.322;2023-08-24T04:01:58;12.40;39.50
62904;DHT22;49000;50.698;13.322;2023-08-24T04:04:27;12.40;38.10
62904;DHT22;49000;50.698;13.322;2023-08-24T04:06:53;12.40;37.60
62904;DHT22;49000;50.698;13.322;2023-08-24T04:09:18;12.40;39.10
62904;DHT22;49000;50.698;13.322;2023-08-24T04:11:44;12.40;43.40
62904;DHT22;49000;50.698;13.322;2023-08-24T04:14:09;12.30;42.20
62904;DHT22;49000;50.698;13.322;2023-08-24T04:16:35;12.30;41.80
62904;DHT22;49000;50.698;13.322;2023-08-24T04:19:01;12.30;46.90
62904;DHT22;49000;50.698;13.322;2023-08-24T04:21:26;12.30;55.30
62904;DHT22;49000;50.698;13.322;2023-08-24T04:23:52;12.30;65.60
62904;DHT22;49000;50.698;13.322;2023-08-24T04:26:18;12.30;69.30
62904;DHT22;49000;50.698;13.322;2023-08-24T04:28:43;12.30;65.60
62904;DHT22;49000;50.698;13.322;2023-08-24T04:31:09;12.30;68.00
62904;DHT22;49000;50.698;13.322;2023-08-24T04:33:36;12.30;66.00
62904;DHT22;49000;50.698;13.322;2023-08-24T04:36:13;12.40;65.60
62904;DHT22;49000;50.698;13.322;2023-08-24T04:39:08;12.40;65.60
62904;DHT22;49000;50.698;13.322;2023-08-24T04:42:09;12.40;64.20
62904;DHT22;49000;50.698;13.322;2023-08-24T04:44:35;12.40;62.80
62904;DHT22;49000;50.698;13.322;2023-08-24T04:47:08;12.40;63.00
62904;DHT22;49000;50.698;13.322;2023-08-24T04:49:40;12.40;63.10
62904;DHT22;49000;50.698;13.322;2023-08-24T04:52:05;12.50;63.90
62904;DHT22;49000;50.698;13.322;2023-08-24T04:54:32;12.50;63.80
62904;DHT22;49000;50.698;13.322;2023-08-24T04:56:57;12.50;65.20
62904;DHT22;49000;50.698;13.322;2023-08-24T04:59:23;12.60;64.10
62904;DHT22;49000;50.698;13.322;2023-08-24T05:01:49;12.50;64.60
62904;DHT22;49000;50.698;13.322;2023-08-24T05:04:14;12.60;68.00
62904;DHT22;49000;50.698;13.322;2023-08-24T05:06:40;12.60;67.90
62904;DHT22;49000;50.698;13.322;2023-08-24T05:09:05;12.60;65.90
62904;DHT22;49000;50.698;13.322;2023-08-24T05:11:31;12.60;65.70
62904;DHT22;49000;50.698;13.322;2023-08-24T05:13:56;12.60;65.20
62904;DHT22;49000;50.698;13.322;2023-08-24T05:16:22;12.70;68.40
62904;DHT22;49000;50.698;13.322;2023-08-24T05:18:48;12.70;77.50
62904;DHT22;49000;50.698;13.322;2023-08-24T05:21:14;12.70;75.00
62904;DHT22;49000;50.698;13.322;2023-08-24T05:23:39;12.70;74.90
62904;DHT22;49000;50.698;13.322;2023-08-24T05:26:05;12.80;76.90
62904;DHT22;49000;50.698;13.322;2023-08-24T05:28:31;12.80;78.90
62904;DHT22;49000;50.698;13.322;2023-08-24T05:30:57;12.90;80.30
62904;DHT22;49000;50.698;13.322;2023-08-24T05:33:24;12.90;79.60
62904;DHT22;49000;50.698;13.322;2023-08-24T05:35:50;12.90;81.60
62904;DHT22;49000;50.698;13.322;2023-08-24T05:38:16;13.00;84.10
62904;DHT22;49000;50.698;13.322;2023-08-24T05:40:42;13.00;84.70
62904;DHT22;49000;50.698;13.322;2023-08-24T05:43:09;13.00;84.80
62904;DHT22;49000;50.698;13.322;2023-08-24T05:45:35;13.10;88.50
62904;DHT22;49000;50.698;13.322;2023-08-24T05:48:01;13.20;93.10
62904;DHT22;49000;50.698;13.322;2023-08-24T05:50:26;13.20;93.10
62904;DHT22;49000;50.698;13.322;2023-08-24T05:52:52;13.30;96.20
62904;DHT22;49000;50.698;13.322;2023-08-24T05:55:17;13.30;96.80
62904;DHT22;49000;50.698;13.322;2023-08-24T05:57:43;13.40;96.90
62904;DHT22;49000;50.698;13.322;2023-08-24T06:00:09;13.50;98.80
62904;DHT22;49000;50.698;13.322;2023-08-24T06:02:36;13.50;99.90
62904;DHT22;49000;50.698;13.322;2023-08-24T06:05:02;13.60;99.90
62904;DHT22;49000;50.698;13.322;2023-08-24T06:07:28;13.70;99.90
62904;DHT22;49000;50.698;13.322;2023-08-24T06:09:53;13.80;99.90
62904;DHT22;49000;50.698;13.322;2023-08-24T06:12:19;13.90;99.90
62904;DHT22;49000;50.698;13.322;2023-08-24T06:14:44;14.00;99.90
62904;DHT22;49000;50.698;13.322;2023-08-24T06:17:10;14.20;99.90
62904;DHT22;49000;50.698;13.322;2023-08-24T06:19:35;14.50;99.90
62904;DHT22;49000;50.698;13.322;2023-08-24T06:22:01;14.60;99.90
62904;DHT22;49000;50.698;13.322;2023-08-24T06:24:26;14.90;99.90
62904;DHT22;49000;50.698;13.322;2023-08-24T06:26:52;15.10;99.90
62904;DHT22;49000;50.698;13.322;2023-08-24T06:29:17;15.30;99.90
62904;DHT22;49000;50.698;13.322;2023-08-24T06:31:43;15.50;99.90
62904;DHT22;49000;50.698;13.322;2023-08-24T06:34:08;15.80;99.90
62904;DHT22;49000;50.698;13.322;2023-08-24T06:36:34;16.00;99.90
62904;DHT22;49000;50.698;13.322;2023-08-24T06:38:59;16.20;99.90
62904;DHT22;49000;50.698;13.322;2023-08-24T06:41:25;16.50;99.90
62904;DHT22;49000;50.698;13.322;2023-08-24T06:43:50;16.70;99.90
62904;DHT22;49000;50.698;13.322;2023-08-24T06:46:16;17.00;99.90
62904;DHT22;49000;50.698;13.322;2023-08-24T06:48:42;17.30;99.90
62904;DHT22;49000;50.698;13.322;2023-08-24T06:51:09;17.50;99.90
62904;DHT22;49000;50.698;13.322;2023-08-24T06:53:35;17.80;99.90
62904;DHT22;49000;50.698;13.322;2023-08-24T06:56:00;18.00;99.90
62904;DHT22;49000;50.698;13.322;2023-08-24T06:58:26;18.30;99.90
62904;DHT22;49000;50.698;13.322;2023-08-24T07:00:51;18.60;99.90
62904;DHT22;49000;50.698;13.322;2023-08-24T07:03:18;18.90;99.90
62904;DHT22;49000;50.698;13.322;2023-08-24T07:05:44;19.20;99.90
62904;DHT22;49000;50.698;13.322;2023-08-24T07:08:10;19.40;99.90
62904;DHT22;49000;50.698;13.322;2023-08-24T07:10:35;19.70;99.90
62904;DHT22;49000;50.698;13.322;2023-08-24T07:13:01;20.00;99.90
62904;DHT22;49000;50.698;13.322;2023-08-24T07:15:27;20.20;99.90
62904;DHT22;49000;50.698;13.322;2023-08-24T07:17:52;20.50;99.90
62904;DHT22;49000;50.698;13.322;2023-08-24T07:20:18;20.80;99.90
62904;DHT22;49000;50.698;13.322;2023-08-24T07:22:45;21.10;96.30
62904;DHT22;49000;50.698;13.322;2023-08-24T07:25:10;21.30;82.10
62904;DHT22;49000;50.698;13.322;2023-08-24T07:27:37;21.70;66.40
62904;DHT22;49000;50.698;13.322;2023-08-24T07:30:03;21.90;55.20
62904;DHT22;49000;50.698;13.322;2023-08-24T07:32:32;22.20;32.60
62904;DHT22;49000;50.698;13.322;2023-08-24T07:34:58;22.50;18.70
62904;DHT22;49000;50.698;13.322;2023-08-24T07:37:27;22.80;11.20
62904;DHT22;49000;50.698;13.322;2023-08-24T07:39:53;22.90;5.50
62904;DHT22;49000;50.698;13.322;2023-08-24T07:42:22;23.00;10.40
62904;DHT22;49000;50.698;13.322;2023-08-24T07:44:47;23.30;5.20
62904;DHT22;49000;50.698;13.322;2023-08-24T07:47:13;23.50;1.00
62904;DHT22;49000;50.698;13.322;2023-08-24T07:49:39;23.80;1.00
62904;DHT22;49000;50.698;13.322;2023-08-24T07:52:12;24.00;1.00
62904;DHT22;49000;50.698;13.322;2023-08-24T07:54:38;24.20;1.00
62904;DHT22;49000;50.698;13.322;2023-08-24T07:57:05;24.50;1.00
62904;DHT22;49000;50.698;13.322;2023-08-24T07:59:30;24.80;1.00
62904;DHT22;49000;50.698;13.322;2023-08-24T08:01:56;25.10;1.00
62904;DHT22;49000;50.698;13.322;2023-08-24T08:04:21;25.30;1.00
62904;DHT22;49000;50.698;13.322;2023-08-24T08:06:47;25.20;1.00
62904;DHT22;49000;50.698;13.322;2023-08-24T08:09:12;25.30;1.00
62904;DHT22;49000;50.698;13.322;2023-08-24T08:11:38;25.50;1.00
62904;DHT22;49000;50.698;13.322;2023-08-24T08:14:03;25.70;1.00
62904;DHT22;49000;50.698;13.322;2023-08-24T08:16:30;26.00;1.00
62904;DHT22;49000;50.698;13.322;2023-08-24T08:18:55;26.20;1.00
62904;DHT22;49000;50.698;13.322;2023-08-24T08:21:21;26.40;1.00
62904;DHT22;49000;50.698;13.322;2023-08-24T08:23:48;26.50;1.00
62904;DHT22;49000;50.698;13.322;2023-08-24T08:26:15;26.70;1.00
62904;DHT22;49000;50.698;13.322;2023-08-24T08:28:41;27.00;1.00
62904;DHT22;49000;50.698;13.322;2023-08-24T08:31:07;27.20;1.00
62904;DHT22;49000;50.698;13.322;2023-08-24T08:33:33;27.60;1.00
62904;DHT22;49000;50.698;13.322;2023-08-24T08:35:58;27.70;1.00
62904;DHT22;49000;50.698;13.322;2023-08-24T08:38:24;27.60;1.00
62904;DHT22;49000;50.698;13.322;2023-08-24T08:41:01;27.70;1.00
62904;DHT22;49000;50.698;13.322;2023-08-24T08:43:27;28.00;1.00
62904;DHT22;49000;50.698;13.322;2023-08-24T08:45:55;28.60;1.00
62904;DHT22;49000;50.698;13.322;2023-08-24T08:48:21;28.80;1.00
62904;DHT22;49000;50.698;13.322;2023-08-24T08:50:51;28.80;1.00
62904;DHT22;49000;50.698;13.322;2023-08-24T08:53:21;28.50;1.00
62904;DHT22;49000;50.698;13.322;2023-08-24T08:55:48;28.60;1.00
62904;DHT22;49000;50.698;13.322;2023-08-24T08:58:15;28.80;1.00
62904;DHT22;49000;50.698;13.322;2023-08-24T09:00:41;28.60;1.00
62904;DHT22;49000;50.698;13.322;2023-08-24T09:03:08;28.40;1.00
62904;DHT22;49000;50.698;13.322;2023-08-24T09:05:36;28.60;1.00
62904;DHT22;49000;50.698;13.322;2023-08-24T09:08:03;29.10;1.00
62904;DHT22;49000;50.698;13.322;2023-08-24T09:10:29;28.80;1.00
62904;DHT22;49000;50.698;13.322;2023-08-24T09:12:55;28.90;1.00
62904;DHT22;49000;50.698;13.322;2023-08-24T09:15:25;29.30;1.00
62904;DHT22;49000;50.698;13.322;2023-08-24T09:17:54;29.40;1.00
62904;DHT22;49000;50.698;13.322;2023-08-24T09:20:21;29.50;1.00
62904;DHT22;49000;50.698;13.322;2023-08-24T09:22:47;29.80;1.00
62904;DHT22;49000;50.698;13.322;2023-08-24T09:25:13;30.20;1.00
62904;DHT22;49000;50.698;13.322;2023-08-24T09:27:38;30.20;1.00
62904;DHT22;49000;50.698;13.322;2023-08-24T09:30:04;30.30;1.00
62904;DHT22;49000;50.698;13.322;2023-08-24T09:32:31;30.10;1.00
62904;DHT22;49000;50.698;13.322;2023-08-24T09:35:10;30.50;1.00
62904;DHT22;49000;50.698;13.322;2023-08-24T09:37:37;30.40;1.00
62904;DHT22;49000;50.698;13.322;2023-08-24T09:40:07;30.40;1.00
62904;DHT22;49000;50.698;13.322;2023-08-24T09:42:40;30.60;1.00
62904;DHT22;49000;50.698;13.322;2023-08-24T09:45:08;31.00;1.00
62904;DHT22;49000;50.698;13.322;2023-08-24T09:47:36;31.60;1.00
62904;DHT22;49000;50.698;13.322;2023-08-24T09:50:03;31.90;1.00
62904;DHT22;49000;50.698;13.322;2023-08-24T09:52:32;31.60;1.00
62904;DHT22;49000;50.698;13.322;2023-08-24T09:55:04;31.40;1.00
62904;DHT22;49000;50.698;13.322;2023-08-24T09:57:37;30.90;1.00
62904;DHT22;49000;50.698;13.322;2023-08-24T10:00:06;30.80;1.00
62904;DHT22;49000;50.698;13.322;2023-08-24T10:02:49;30.80;1.00
62904;DHT22;49000;50.698;13.322;2023-08-24T10:05:18;31.00;1.00
62904;DHT22;49000;50.698;13.322;2023-08-24T10:07:49;31.20;1.00
62904;DHT22;49000;50.698;13.322;2023-08-24T10:10:18;31.30;1.00
62904;DHT22;49000;50.698;13.322;2023-08-24T10:12:47;31.40;1.00
62904;DHT22;49000;50.698;13.322;2023-08-24T10:15:17;30.90;1.00
62904;DHT22;49000;50.698;13.322;2023-08-24T10:17:44;30.80;1.00
62904;DHT22;49000;50.698;13.322;2023-08-24T10:20:10;31.00;1.00
62904;DHT22;49000;50.698;13.322;2023-08-24T10:22:37;31.20;1.00
62904;DHT22;49000;50.698;13.322;2023-08-24T10:25:06;30.90;1.00
62904;DHT22;49000;50.698;13.322;2023-08-24T10:27:32;30.60;1.00
62904;DHT22;49000;50.698;13.322;2023-08-24T10:29:58;31.00;1.00
62904;DHT22;49000;50.698;13.322;2023-08-24T10:32:25;31.30;1.00
62904;DHT22;49000;50.698;13.322;2023-08-24T10:34:51;31.70;1.00
62904;DHT22;49000;50.698;13.322;2023-08-24T10:37:17;32.00;1.00
62904;DHT22;49000;50.698;13.322;2023-08-24T10:39:50;31.70;1.00
62904;DHT22;49000;50.698;13.322;2023-08-24T10:42:15;31.50;1.00
62904;DHT22;49000;50.698;13.322;2023-08-24T10:44:45;31.30;1.00
62904;DHT22;49000;50.698;13.322;2023-08-24T10:49:59;31.10;1.00
62904;DHT22;49000;50.698;13.322;2023-08-24T10:52:38;31.10;1.00
62904;DHT22;49000;50.698;13.322;2023-08-24T10:55:27;30.70;1.00
62904;DHT22;49000;50.698;13.322;2023-08-24T10:57:57;30.50;1.00
62904;DHT22;49000;50.698;13.322;2023-08-24T11:00:29;30.20;1.00
62904;DHT22;49000;50.698;13.322;2023-08-24T11:02:56;30.10;1.00
62904;DHT22;49000;50.698;13.322;2023-08-24T11:05:27;30.00;1.00
62904;DHT22;49000;50.698;13.322;2023-08-24T11:08:02;30.00;1.00
62904;DHT22;49000;50.698;13.322;2023-08-24T11:10:45;30.10;1.00
62904;DHT22;49000;50.698;13.322;2023-08-24T11:13:15;30.10;1.00
62904;DHT22;49000;50.698;13.322;2023-08-24T11:15:43;30.10;1.00
62904;DHT22;49000;50.698;13.322;2023-08-24T11:21:09;29.80;1.00
62904;DHT22;49000;50.698;13.322;2023-08-24T11:23:34;29.80;1.00
62904;DHT22;49000;50.698;13.322;2023-08-24T11:26:00;30.00;1.00
62904;DHT22;49000;50.698;13.322;2023-08-24T11:28:30;30.20;1.00
62904;DHT22;49000;50.698;13.322;2023-08-24T11:30:57;30.20;1.00
62904;DHT22;49000;50.698;13.322;2023-08-24T11:35:53;31.20;1.00
62904;DHT22;49000;50.698;13.322;2023-08-24T11:38:19;31.80;1.00
62904;DHT22;49000;50.698;13.322;2023-08-24T11:40:45;32.30;1.00
62904;DHT22;49000;50.698;13.322;2023-08-24T11:43:10;32.20;1.00
62904;DHT22;49000;50.698;13.322;2023-08-24T11:45:37;32.00;1.00
62904;DHT22;49000;50.698;13.322;2023-08-24T11:48:04;31.20;1.00
62904;DHT22;49000;50.698;13.322;2023-08-24T11:50:30;30.30;1.00
62904;DHT22;49000;50.698;13.322;2023-08-24T11:52:56;29.80;1.00
62904;DHT22;49000;50.698;13.322;2023-08-24T11:55:23;29.40;1.00
62904;DHT22;49000;50.698;13.322;2023-08-24T11:57:49;29.10;1.00
62904;DHT22;49000;50.698;13.322;2023-08-24T12:00:15;29.00;1.00
62904;DHT22;49000;50.698;13.322;2023-08-24T12:02:42;28.90;1.00
62904;DHT22;49000;50.698;13.322;2023-08-24T12:05:11;28.90;1.00
62904;DHT22;49000;50.698;13.322;2023-08-24T12:07:45;28.40;1.00
62904;DHT22;49000;50.698;13.322;2023-08-24T12:10:12;28.20;1.00
62904;DHT22;49000;50.698;13.322;2023-08-24T12:12:38;28.20;1.00
62904;DHT22;49000;50.698;13.322;2023-08-24T12:15:03;28.10;1.00
62904;DHT22;49000;50.698;13.322;2023-08-24T12:17:30;27.90;1.00
62904;DHT22;49000;50.698;13.322;2023-08-24T12:19:58;28.00;1.00
62904;DHT22;49000;50.698;13.322;2023-08-24T12:22:25;28.00;1.00
62904;DHT22;49000;50.698;13.322;2023-08-24T12:24:51;27.80;1.00
62904;DHT22;49000;50.698;13.322;2023-08-24T12:27:20;27.90;1.00
62904;DHT22;49000;50.698;13.322;2023-08-24T12:29:46;28.00;1.00
62904;DHT22;49000;50.698;13.322;2023-08-24T12:32:12;27.80;1.00
62904;DHT22;49000;50.698;13.322;2023-08-24T12:34:38;27.80;1.00
62904;DHT22;49000;50.698;13.322;2023-08-24T12:37:03;28.20;1.00
62904;DHT22;49000;50.698;13.322;2023-08-24T12:39:41;28.40;1.00
62904;DHT22;49000;50.698;13.322;2023-08-24T12:42:06;28.30;1.00
62904;DHT22;49000;50.698;13.322;2023-08-24T12:44:32;28.40;1.00
62904;DHT22;49000;50.698;13.322;2023-08-24T12:47:02;28.40;1.00
62904;DHT22;49000;50.698;13.322;2023-08-24T12:49:28;28.30;1.00
62904;DHT22;49000;50.698;13.322;2023-08-24T12:51:53;28.10;1.00
62904;DHT22;49000;50.698;13.322;2023-08-24T12:54:19;28.20;1.00
62904;DHT22;49000;50.698;13.322;2023-08-24T12:56:44;28.00;1.00
62904;DHT22;49000;50.698;13.322;2023-08-24T12:59:10;27.90;1.00
62904;DHT22;49000;50.698;13.322;2023-08-24T13:01:37;27.90;1.00
62904;DHT22;49000;50.698;13.322;2023-08-24T13:04:04;28.20;1.00
62904;DHT22;49000;50.698;13.322;2023-08-24T13:06:29;28.50;1.00
62904;DHT22;49000;50.698;13.322;2023-08-24T13:08:55;28.70;1.00
62904;DHT22;49000;50.698;13.322;2023-08-24T13:11:21;29.20;1.00
62904;DHT22;49000;50.698;13.322;2023-08-24T13:13:48;29.50;1.00
62904;DHT22;49000;50.698;13.322;2023-08-24T13:16:13;29.40;1.00
62904;DHT22;49000;50.698;13.322;2023-08-24T13:18:39;29.50;1.00
62904;DHT22;49000;50.698;13.322;2023-08-24T13:21:05;29.40;1.00
62904;DHT22;49000;50.698;13.322;2023-08-24T13:23:30;29.70;1.00
62904;DHT22;49000;50.698;13.322;2023-08-24T13:25:59;30.40;1.00
62904;DHT22;49000;50.698;13.322;2023-08-24T13:28:25;30.30;1.00
62904;DHT22;49000;50.698;13.322;2023-08-24T13:30:50;30.30;1.00
62904;DHT22;49000;50.698;13.322;2023-08-24T13:33:16;30.80;1.00
62904;DHT22;49000;50.698;13.322;2023-08-24T13:35:42;31.00;1.00
62904;DHT22;49000;50.698;13.322;2023-08-24T13:38:08;31.50;1.00
62904;DHT22;49000;50.698;13.322;2023-08-24T13:40:33;31.70;1.00
62904;DHT22;49000;50.698;13.322;2023-08-24T13:42:59;32.40;1.00
62904;DHT22;49000;50.698;13.322;2023-08-24T13:45:24;32.90;1.00
62904;DHT22;49000;50.698;13.322;2023-08-24T13:47:50;32.90;1.00
62904;DHT22;49000;50.698;13.322;2023-08-24T13:50:15;32.40;1.00
62904;DHT22;49000;50.698;13.322;2023-08-24T13:52:41;32.40;1.00
62904;DHT22;49000;50.698;13.322;2023-08-24T13:55:07;32.20;1.00
62904;DHT22;49000;50.698;13.322;2023-08-24T13:57:32;32.90;1.00
62904;DHT22;49000;50.698;13.322;2023-08-24T13:59:58;33.40;1.00
62904;DHT22;49000;50.698;13.322;2023-08-24T14:02:25;33.70;1.00
62904;DHT22;49000;50.698;13.322;2023-08-24T14:04:50;33.80;1.00
62904;DHT22;49000;50.698;13.322;2023-08-24T14:07:16;33.40;1.00
62904;DHT22;49000;50.698;13.322;2023-08-24T14:09:41;33.30;1.00
62904;DHT22;49000;50.698;13.322;2023-08-24T14:12:07;33.40;1.00
62904;DHT22;49000;50.698;13.322;2023-08-24T14:14:32;33.40;1.00
62904;DHT22;49000;50.698;13.322;2023-08-24T14:16:58;33.10;1.00
62904;DHT22;49000;50.698;13.322;2023-08-24T14:19:24;32.70;1.00
62904;DHT22;49000;50.698;13.322;2023-08-24T14:21:50;32.70;1.00
62904;DHT22;49000;50.698;13.322;2023-08-24T14:24:15;33.10;1.00
62904;DHT22;49000;50.698;13.322;2023-08-24T14:26:42;33.40;1.00
62904;DHT22;49000;50.698;13.322;2023-08-24T14:29:11;33.40;1.00
62904;DHT22;49000;50.698;13.322;2023-08-24T14:31:37;33.50;1.00
62904;DHT22;49000;50.698;13.322;2023-08-24T14:34:02;33.40;1.00
62904;DHT22;49000;50.698;13.322;2023-08-24T14:36:28;34.10;1.00
62904;DHT22;49000;50.698;13.322;2023-08-24T14:38:54;34.30;1.00
62904;DHT22;49000;50.698;13.322;2023-08-24T14:41:20;34.40;1.00
62904;DHT22;49000;50.698;13.322;2023-08-24T14:43:46;34.30;1.00
62904;DHT22;49000;50.698;13.322;2023-08-24T14:46:12;34.50;1.00
62904;DHT22;49000;50.698;13.322;2023-08-24T14:48:38;34.50;1.00
62904;DHT22;49000;50.698;13.322;2023-08-24T14:51:04;34.80;1.00
62904;DHT22;49000;50.698;13.322;2023-08-24T14:53:30;35.20;1.00
62904;DHT22;49000;50.698;13.322;2023-08-24T14:55:56;34.80;1.00
62904;DHT22;49000;50.698;13.322;2023-08-24T14:58:23;34.60;1.00
62904;DHT22;49000;50.698;13.322;2023-08-24T15:00:50;35.20;1.00
62904;DHT22;49000;50.698;13.322;2023-08-24T15:03:16;35.50;1.00
62904;DHT22;49000;50.698;13.322;2023-08-24T15:06:04;35.30;1.00
62904;DHT22;49000;50.698;13.322;2023-08-24T15:08:34;35.50;1.00
62904;DHT22;49000;50.698;13.322;2023-08-24T15:11:01;35.80;1.00
62904;DHT22;49000;50.698;13.322;2023-08-24T15:13:28;35.80;1.00
62904;DHT22;49000;50.698;13.322;2023-08-24T15:15:55;36.20;1.00
62904;DHT22;49000;50.698;13.322;2023-08-24T15:18:21;36.30;1.00
62904;DHT22;49000;50.698;13.322;2023-08-24T15:20:47;36.20;1.00
62904;DHT22;49000;50.698;13.322;2023-08-24T15:23:24;36.20;1.00
62904;DHT22;49000;50.698;13.322;2023-08-24T15:25:49;36.20;1.00
62904;DHT22;49000;50.698;13.322;2023-08-24T15:28:15;36.30;1.00
62904;DHT22;49000;50.698;13.322;2023-08-24T15:30:40;36.10;1.00
62904;DHT22;49000;50.698;13.322;2023-08-24T15:33:06;35.80;1.00
62904;DHT22;49000;50.698;13.322;2023-08-24T15:35:32;35.80;1.00
62904;DHT22;49000;50.698;13.322;2023-08-24T15:37:57;35.50;1.00